createdAt,value
2017-10-20T00:00:41.864Z,1001.16
2017-10-20T00:01:41.855Z,1001.12
2017-10-20T00:02:41.835Z,1001.15
2017-10-20T00:03:41.829Z,1001.18
2017-10-20T00:04:41.813Z,1001.17
2017-10-20T00:05:41.804Z,1001.21
2017-10-20T00:06:41.786Z,1001.22
2017-10-20T00:07:41.777Z,1001.25
2017-10-20T00:08:41.765Z,1001.28
2017-10-20T00:09:41.756Z,1001.27
2017-10-20T00:10:41.743Z,1001.32
2017-10-20T00:11:41.736Z,1001.34
2017-10-20T00:12:41.717Z,1001.34
2017-10-20T00:13:41.704Z,1001.3
2017-10-20T00:14:41.697Z,1001.3
2017-10-20T00:15:41.682Z,1001.33
2017-10-20T00:16:41.718Z,1001.37
2017-10-20T00:17:41.659Z,1001.39
2017-10-20T00:18:41.648Z,1001.41
2017-10-20T00:19:41.633Z,1001.41
2017-10-20T00:20:41.622Z,1001.42
2017-10-20T00:21:41.640Z,1001.42
2017-10-20T00:22:41.598Z,1001.44
2017-10-20T00:23:41.593Z,1001.45
2017-10-20T00:24:41.575Z,1001.45
2017-10-20T00:25:41.562Z,1001.4
2017-10-20T00:26:41.604Z,1001.41
2017-10-20T00:27:41.541Z,1001.41
2017-10-20T00:28:41.528Z,1001.39
2017-10-20T00:29:41.515Z,1001.39
2017-10-20T00:30:41.504Z,1001.36
2017-10-20T00:31:41.495Z,1001.38
2017-10-20T00:32:41.480Z,1001.37
2017-10-20T00:33:41.472Z,1001.37
2017-10-20T00:34:41.458Z,1001.33
2017-10-20T00:35:41.447Z,1001.34
2017-10-20T00:36:41.433Z,1001.34
2017-10-20T00:37:41.421Z,1001.29
2017-10-20T00:38:41.410Z,1001.26
2017-10-20T00:39:41.397Z,1001.28
2017-10-20T00:40:41.387Z,1001.24
2017-10-20T00:41:41.424Z,1001.26
2017-10-20T00:42:41.364Z,1001.29
2017-10-20T00:43:41.350Z,1001.29
2017-10-20T00:44:41.342Z,1001.3
2017-10-20T00:45:41.335Z,1001.3
2017-10-20T00:46:41.313Z,1001.32
2017-10-20T00:47:41.307Z,1001.33
2017-10-20T00:48:41.299Z,1001.33
2017-10-20T00:49:41.278Z,1001.35
2017-10-20T00:50:41.268Z,1001.29
2017-10-20T00:51:41.304Z,1001.3
2017-10-20T00:52:41.246Z,1001.31
2017-10-20T00:53:41.229Z,1001.3
2017-10-20T00:54:41.217Z,1001.36
2017-10-20T00:55:41.209Z,1001.38
2017-10-20T00:56:41.195Z,1001.39
2017-10-20T00:57:41.181Z,1001.41
2017-10-20T00:58:41.170Z,1001.39
2017-10-20T00:59:41.160Z,1001.45
2017-10-20T01:00:41.147Z,1001.43
2017-10-20T01:01:41.134Z,1001.45
2017-10-20T01:02:41.126Z,1001.51
2017-10-20T01:03:41.111Z,1001.49
2017-10-20T01:04:41.098Z,1001.5
2017-10-20T01:05:41.086Z,1001.48
2017-10-20T01:06:41.074Z,1001.49
2017-10-20T01:07:41.062Z,1001.45
2017-10-20T01:08:41.049Z,1001.45
2017-10-20T01:09:41.038Z,1001.43
2017-10-20T01:10:41.026Z,1001.45
2017-10-20T01:11:41.017Z,1001.42
2017-10-20T01:12:41.003Z,1001.41
2017-10-20T01:13:40.991Z,1001.43
2017-10-20T01:14:40.977Z,1001.4
2017-10-20T01:15:40.965Z,1001.39
2017-10-20T01:16:41.155Z,1001.35
2017-10-20T01:17:40.945Z,1001.38
2017-10-20T01:18:40.930Z,1001.36
2017-10-20T01:19:40.918Z,1001.38
2017-10-20T01:20:40.905Z,1001.33
2017-10-20T01:21:40.894Z,1001.34
2017-10-20T01:22:40.886Z,1001.35
2017-10-20T01:23:40.879Z,1001.37
2017-10-20T01:24:40.863Z,1001.36
2017-10-20T01:25:40.845Z,1001.38
2017-10-20T01:26:40.832Z,1001.42
2017-10-20T01:27:40.823Z,1001.39
2017-10-20T01:28:40.810Z,1001.4
2017-10-20T01:29:40.800Z,1001.38
2017-10-20T01:30:40.785Z,1001.37
2017-10-20T01:31:40.774Z,1001.33
2017-10-20T01:32:40.763Z,1001.37
2017-10-20T01:33:40.751Z,1001.4
2017-10-20T01:34:40.736Z,1001.32
2017-10-20T01:35:40.722Z,1001.32
2017-10-20T01:36:40.711Z,1001.34
2017-10-20T01:37:40.699Z,1001.28
2017-10-20T01:38:40.687Z,1001.27
2017-10-20T01:39:40.675Z,1001.28
2017-10-20T01:40:40.670Z,1001.26
2017-10-20T01:41:40.648Z,1001.24
2017-10-20T01:42:40.638Z,1001.24
2017-10-20T01:43:40.627Z,1001.22
2017-10-20T01:44:40.617Z,1001.17
2017-10-20T01:45:40.600Z,1001.2
2017-10-20T01:46:40.591Z,1001.24
2017-10-20T01:47:40.780Z,1001.23
2017-10-20T01:48:40.568Z,1001.19
2017-10-20T01:49:40.553Z,1001.17
2017-10-20T01:50:40.539Z,1001.12
2017-10-20T01:51:40.527Z,1001.1
2017-10-20T01:52:40.520Z,1001.11
2017-10-20T01:53:40.503Z,1001.17
2017-10-20T01:54:40.499Z,1001.2
2017-10-20T01:55:40.482Z,1001.26
2017-10-20T01:56:40.467Z,1001.24
2017-10-20T01:57:40.453Z,1001.24
2017-10-20T01:58:40.443Z,1001.24
2017-10-20T01:59:40.433Z,1001.21
2017-10-20T02:00:40.416Z,1001.19
2017-10-20T02:01:40.404Z,1001.15
2017-10-20T02:02:40.391Z,1001.1
2017-10-20T02:03:40.379Z,1001
2017-10-20T02:04:40.369Z,1000.89
2017-10-20T02:05:40.356Z,1000.86
2017-10-20T02:06:40.342Z,1000.76
2017-10-20T02:07:40.329Z,1000.8
2017-10-20T02:08:40.322Z,1000.91
2017-10-20T02:09:40.307Z,1001
2017-10-20T02:10:40.297Z,1001
2017-10-20T02:11:40.283Z,1000.99
2017-10-20T02:12:40.269Z,1000.97
2017-10-20T02:13:40.256Z,1000.93
2017-10-20T02:14:40.243Z,1000.94
2017-10-20T02:15:40.230Z,1000.94
2017-10-20T02:16:40.219Z,1000.95
2017-10-20T02:17:40.207Z,1000.9
2017-10-20T02:18:40.197Z,1000.91
2017-10-20T02:19:40.182Z,1000.91
2017-10-20T02:20:40.170Z,1000.97
2017-10-20T02:21:40.157Z,1000.93
2017-10-20T02:22:40.144Z,1000.91
2017-10-20T02:23:40.131Z,1000.9
2017-10-20T02:24:40.121Z,1000.96
2017-10-20T02:25:40.107Z,1000.9
2017-10-20T02:26:40.095Z,1000.92
2017-10-20T02:27:40.083Z,1000.87
2017-10-20T02:28:40.069Z,1000.85
2017-10-20T02:29:40.058Z,1000.84
2017-10-20T02:30:40.045Z,1000.82
2017-10-20T02:31:40.033Z,1000.79
2017-10-20T02:32:40.021Z,1000.78
2017-10-20T02:33:40.008Z,1000.76
2017-10-20T02:34:39.996Z,1000.77
2017-10-20T02:35:39.984Z,1000.75
2017-10-20T02:36:39.971Z,1000.77
2017-10-20T02:37:39.957Z,1000.8
2017-10-20T02:38:39.946Z,1000.8
2017-10-20T02:39:39.932Z,1000.84
2017-10-20T02:40:39.924Z,1000.87
2017-10-20T02:41:39.910Z,1000.83
2017-10-20T02:42:39.908Z,1000.84
2017-10-20T02:43:39.882Z,1000.86
2017-10-20T02:44:39.877Z,1000.92
2017-10-20T02:45:39.860Z,1000.94
2017-10-20T02:46:39.845Z,1000.96
2017-10-20T02:47:39.833Z,1000.95
2017-10-20T02:48:39.821Z,1000.88
2017-10-20T02:49:39.807Z,1000.88
2017-10-20T02:50:39.795Z,1000.95
2017-10-20T02:51:39.781Z,1001
2017-10-20T02:52:39.769Z,1000.97
2017-10-20T02:53:39.759Z,1000.94
2017-10-20T02:54:39.745Z,1000.91
2017-10-20T02:55:39.732Z,1000.91
2017-10-20T02:56:39.720Z,1000.92
2017-10-20T02:57:39.710Z,1000.85
2017-10-20T02:58:39.694Z,1000.82
2017-10-20T02:59:39.689Z,1000.85
2017-10-20T03:00:39.673Z,1000.88
2017-10-20T03:01:39.656Z,1000.82
2017-10-20T03:02:39.645Z,1000.75
2017-10-20T03:03:39.631Z,1000.7
2017-10-20T03:04:39.620Z,1000.67
2017-10-20T03:05:39.604Z,1000.65
2017-10-20T03:06:39.595Z,1000.62
2017-10-20T03:07:39.581Z,1000.63
2017-10-20T03:08:39.568Z,1000.61
2017-10-20T03:09:39.557Z,1000.61
2017-10-20T03:10:39.545Z,1000.59
2017-10-20T03:11:39.529Z,1000.59
2017-10-20T03:12:39.526Z,1000.61
2017-10-20T03:13:39.509Z,1000.59
2017-10-20T03:14:39.494Z,1000.57
2017-10-20T03:15:39.482Z,1000.55
2017-10-20T03:16:39.677Z,1000.47
2017-10-20T03:17:39.459Z,1000.4
2017-10-20T03:18:39.445Z,1000.41
2017-10-20T03:19:39.431Z,1000.48
2017-10-20T03:20:39.416Z,1000.45
2017-10-20T03:21:39.409Z,1000.32
2017-10-20T03:22:39.392Z,1000.34
2017-10-20T03:23:39.380Z,1000.35
2017-10-20T03:24:39.367Z,1000.44
2017-10-20T03:25:39.352Z,1000.37
2017-10-20T03:26:39.344Z,1000.39
2017-10-20T03:27:39.333Z,1000.29
2017-10-20T03:28:39.316Z,1000.25
2017-10-20T03:29:39.303Z,1000.28
2017-10-20T03:30:39.291Z,1000.25
2017-10-20T03:31:39.277Z,1000.28
2017-10-20T03:32:39.268Z,1000.31
2017-10-20T03:33:39.252Z,1000.32
2017-10-20T03:34:39.242Z,1000.32
2017-10-20T03:35:39.225Z,1000.29
2017-10-20T03:36:39.213Z,1000.34
2017-10-20T03:37:39.202Z,1000.32
2017-10-20T03:38:39.193Z,1000.32
2017-10-20T03:39:39.177Z,1000.31
2017-10-20T03:40:39.167Z,1000.28
2017-10-20T03:41:39.152Z,1000.28
2017-10-20T03:42:39.139Z,1000.32
2017-10-20T03:43:39.127Z,1000.32
2017-10-20T03:44:39.115Z,1000.31
2017-10-20T03:45:39.107Z,1000.31
2017-10-20T03:46:39.087Z,1000.29
2017-10-20T03:47:39.079Z,1000.27
2017-10-20T03:48:39.063Z,1000.22
2017-10-20T03:49:39.050Z,1000.26
2017-10-20T03:50:39.038Z,1000.2
2017-10-20T03:51:39.026Z,1000.16
2017-10-20T03:52:39.012Z,1000.19
2017-10-20T03:53:38.999Z,1000.27
2017-10-20T03:54:38.990Z,1000.28
2017-10-20T03:55:38.976Z,1000.28
2017-10-20T03:56:38.962Z,1000.32
2017-10-20T03:57:38.948Z,1000.28
2017-10-20T03:58:38.939Z,1000.31
2017-10-20T03:59:38.924Z,1000.31
2017-10-20T04:00:38.911Z,1000.26
2017-10-20T04:01:38.897Z,1000.22
2017-10-20T04:02:38.885Z,1000.22
2017-10-20T04:03:38.878Z,1000.21
2017-10-20T04:04:38.861Z,1000.19
2017-10-20T04:05:38.847Z,1000.21
2017-10-20T04:06:38.836Z,1000.17
2017-10-20T04:07:38.821Z,1000.12
2017-10-20T04:08:38.808Z,1000.08
2017-10-20T04:09:38.795Z,1000.08
2017-10-20T04:10:38.784Z,1000.09
2017-10-20T04:11:38.769Z,1000.09
2017-10-20T04:12:38.759Z,1000.03
2017-10-20T04:13:38.745Z,1000
2017-10-20T04:14:38.735Z,999.99
2017-10-20T04:15:38.722Z,999.96
2017-10-20T04:16:38.706Z,1000.02
2017-10-20T04:17:38.695Z,999.99
2017-10-20T04:18:38.680Z,999.99
2017-10-20T04:19:38.669Z,999.95
2017-10-20T04:20:38.655Z,999.91
2017-10-20T04:21:38.646Z,999.92
2017-10-20T04:22:38.629Z,999.94
2017-10-20T04:23:38.618Z,999.96
2017-10-20T04:24:38.604Z,999.97
2017-10-20T04:25:38.593Z,999.98
2017-10-20T04:26:38.577Z,1000
2017-10-20T04:27:38.566Z,999.98
2017-10-20T04:28:38.555Z,999.99
2017-10-20T04:29:38.539Z,1000
2017-10-20T04:30:38.529Z,1000.02
2017-10-20T04:31:38.515Z,1000.06
2017-10-20T04:32:38.502Z,1000.07
2017-10-20T04:33:38.489Z,1000.07
2017-10-20T04:34:38.478Z,1000.11
2017-10-20T04:35:38.467Z,1000.14
2017-10-20T04:36:38.452Z,1000.17
2017-10-20T04:37:38.439Z,1000.17
2017-10-20T04:38:38.426Z,1000.13
2017-10-20T04:39:38.415Z,1000.19
2017-10-20T04:40:38.401Z,1000.13
2017-10-20T04:41:38.390Z,1000.2
2017-10-20T04:42:38.377Z,1000.19
2017-10-20T04:43:38.365Z,1000.17
2017-10-20T04:44:38.353Z,1000.16
2017-10-20T04:45:38.338Z,1000.16
2017-10-20T04:46:38.327Z,1000.09
2017-10-20T04:47:38.314Z,1000.05
2017-10-20T04:48:38.306Z,1000.05
2017-10-20T04:49:38.297Z,1000.05
2017-10-20T04:50:38.279Z,1000.01
2017-10-20T04:51:38.264Z,1000.04
2017-10-20T04:52:38.252Z,1000.08
2017-10-20T04:53:38.242Z,1000.11
2017-10-20T04:54:38.231Z,1000.18
2017-10-20T04:55:38.215Z,1000.21
2017-10-20T04:56:38.203Z,1000.24
2017-10-20T04:57:38.191Z,1000.27
2017-10-20T04:58:38.180Z,1000.27
2017-10-20T04:59:38.166Z,1000.28
2017-10-20T05:00:38.160Z,1000.3
2017-10-20T05:01:38.143Z,1000.26
2017-10-20T05:02:38.130Z,1000.21
2017-10-20T05:03:38.119Z,1000.24
2017-10-20T05:04:38.105Z,1000.25
2017-10-20T05:05:38.093Z,1000.25
2017-10-20T05:06:38.083Z,1000.18
2017-10-20T05:07:38.069Z,1000.18
2017-10-20T05:08:38.057Z,1000.19
2017-10-20T05:09:38.046Z,1000.26
2017-10-20T05:10:38.031Z,1000.3
2017-10-20T05:11:38.022Z,1000.33
2017-10-20T05:12:38.009Z,1000.36
2017-10-20T05:13:37.994Z,1000.2
2017-10-20T05:14:37.983Z,1000.21
2017-10-20T05:15:37.975Z,1000.14
2017-10-20T05:16:37.963Z,1000.18
2017-10-20T05:17:38.153Z,1000.13
2017-10-20T05:18:37.940Z,1000.08
2017-10-20T05:19:37.927Z,1000.22
2017-10-20T05:20:37.916Z,1000.2
2017-10-20T05:21:37.900Z,1000.14
2017-10-20T05:22:37.889Z,1000.07
2017-10-20T05:23:37.878Z,1000.16
2017-10-20T05:24:37.863Z,1000.11
2017-10-20T05:25:37.853Z,1000.2
2017-10-20T05:26:37.844Z,1000.23
2017-10-20T05:27:37.831Z,1000.23
2017-10-20T05:28:37.818Z,1000.2
2017-10-20T05:29:37.804Z,1000.25
2017-10-20T05:30:37.792Z,1000.21
2017-10-20T05:31:37.778Z,1000.21
2017-10-20T05:32:37.773Z,1000.19
2017-10-20T05:33:37.756Z,1000.18
2017-10-20T05:34:37.746Z,1000.11
2017-10-20T05:35:37.730Z,1000.15
2017-10-20T05:36:37.718Z,1000.2
2017-10-20T05:37:37.708Z,1000.19
2017-10-20T05:38:37.692Z,1000.17
2017-10-20T05:39:37.684Z,1000.17
2017-10-20T05:40:37.668Z,1000.21
2017-10-20T05:41:37.655Z,1000.13
2017-10-20T05:42:37.644Z,1000.22
2017-10-20T05:43:37.629Z,1000.2
2017-10-20T05:44:37.616Z,1000.24
2017-10-20T05:45:37.605Z,1000.17
2017-10-20T05:46:37.592Z,1000.13
2017-10-20T05:47:37.578Z,1000.16
2017-10-20T05:48:37.564Z,1000.21
2017-10-20T05:49:37.551Z,1000.18
2017-10-20T05:50:37.540Z,1000.19
2017-10-20T05:51:37.526Z,1000.28
2017-10-20T05:52:37.512Z,1000.28
2017-10-20T05:53:37.500Z,1000.3
2017-10-20T05:54:37.487Z,1000.23
2017-10-20T05:55:37.472Z,1000.27
2017-10-20T05:56:37.463Z,1000.28
2017-10-20T05:57:37.445Z,1000.24
2017-10-20T05:58:37.432Z,1000.27
2017-10-20T05:59:37.420Z,1000.24
2017-10-20T06:00:37.405Z,1000.27
2017-10-20T06:01:37.394Z,1000.32
2017-10-20T06:02:37.377Z,1000.31
2017-10-20T06:03:37.364Z,1000.28
2017-10-20T06:04:37.351Z,1000.28
2017-10-20T06:05:37.335Z,1000.26
2017-10-20T06:06:37.322Z,1000.27
2017-10-20T06:07:37.308Z,1000.33
2017-10-20T06:08:37.294Z,1000.32
2017-10-20T06:09:37.282Z,1000.35
2017-10-20T06:10:37.273Z,1000.32
2017-10-20T06:11:37.253Z,1000.32
2017-10-20T06:12:37.239Z,1000.39
2017-10-20T06:13:37.224Z,1000.45
2017-10-20T06:14:37.211Z,1000.39
2017-10-20T06:15:37.196Z,1000.41
2017-10-20T06:16:37.186Z,1000.46
2017-10-20T06:17:37.173Z,1000.44
2017-10-20T06:18:37.156Z,1000.51
2017-10-20T06:19:37.143Z,1000.42
2017-10-20T06:20:37.126Z,1000.35
2017-10-20T06:21:37.112Z,1000.37
2017-10-20T06:22:37.098Z,1000.34
2017-10-20T06:23:37.083Z,1000.4
2017-10-20T06:24:37.069Z,1000.36
2017-10-20T06:25:37.054Z,1000.3
2017-10-20T06:26:37.040Z,1000.35
2017-10-20T06:27:37.026Z,1000.38
2017-10-20T06:28:37.011Z,1000.36
2017-10-20T06:29:36.998Z,1000.31
2017-10-20T06:30:36.984Z,1000.4
2017-10-20T06:31:36.970Z,1000.34
2017-10-20T06:32:36.957Z,1000.36
2017-10-20T06:33:36.940Z,1000.39
2017-10-20T06:34:36.925Z,1000.37
2017-10-20T06:35:36.913Z,1000.37
2017-10-20T06:36:36.900Z,1000.35
2017-10-20T06:37:36.884Z,1000.33
2017-10-20T06:38:36.869Z,1000.39
2017-10-20T06:39:36.854Z,1000.43
2017-10-20T06:40:36.841Z,1000.38
2017-10-20T06:41:36.826Z,1000.36
2017-10-20T06:42:36.813Z,1000.42
2017-10-20T06:43:36.797Z,1000.39
2017-10-20T06:44:36.786Z,1000.4
2017-10-20T06:45:36.771Z,1000.44
2017-10-20T06:46:36.756Z,1000.49
2017-10-20T06:47:36.742Z,1000.54
2017-10-20T06:48:36.726Z,1000.5
2017-10-20T06:49:36.713Z,1000.56
2017-10-20T06:50:36.697Z,1000.51
2017-10-20T06:51:36.686Z,1000.43
2017-10-20T06:52:36.669Z,1000.48
2017-10-20T06:53:36.656Z,1000.45
2017-10-20T06:54:36.642Z,1000.42
2017-10-20T06:55:36.637Z,1000.49
2017-10-20T06:56:36.613Z,1000.47
2017-10-20T06:57:36.601Z,1000.48
2017-10-20T06:58:36.587Z,1000.48
2017-10-20T06:59:36.571Z,1000.48
2017-10-20T07:00:36.557Z,1000.44
2017-10-20T07:01:36.544Z,1000.49
2017-10-20T07:02:36.532Z,1000.47
2017-10-20T07:03:36.517Z,1000.39
2017-10-20T07:04:36.501Z,1000.4
2017-10-20T07:05:36.489Z,1000.4
2017-10-20T07:06:36.477Z,1000.4
2017-10-20T07:07:36.458Z,1000.34
2017-10-20T07:08:36.445Z,1000.33
2017-10-20T07:09:36.434Z,1000.3
2017-10-20T07:10:36.416Z,1000.26
2017-10-20T07:11:36.409Z,1000.27
2017-10-20T07:12:36.389Z,1000.22
2017-10-20T07:13:36.374Z,1000.25
2017-10-20T07:14:36.361Z,1000.14
2017-10-20T07:15:36.346Z,1000.21
2017-10-20T07:16:36.334Z,1000.15
2017-10-20T07:17:36.520Z,1000.19
2017-10-20T07:18:36.305Z,1000.19
2017-10-20T07:19:36.299Z,1000.21
2017-10-20T07:20:36.277Z,1000.18
2017-10-20T07:21:36.263Z,1000.2
2017-10-20T07:22:36.248Z,1000.2
2017-10-20T07:23:36.238Z,1000.2
2017-10-20T07:24:36.219Z,1000.17
2017-10-20T07:25:36.209Z,1000.1
2017-10-20T07:26:36.194Z,1000.09
2017-10-20T07:27:36.179Z,1000.08
2017-10-20T07:28:36.164Z,1000.06
2017-10-20T07:29:36.149Z,1000.1
2017-10-20T07:30:36.137Z,1000.11
2017-10-20T07:31:36.122Z,1000.16
2017-10-20T07:32:36.111Z,1000.13
2017-10-20T07:33:36.097Z,1000.15
2017-10-20T07:34:36.082Z,1000.19
2017-10-20T07:35:36.067Z,1000.19
2017-10-20T07:36:36.054Z,1000.17
2017-10-20T07:37:36.038Z,1000.2
2017-10-20T07:38:36.027Z,1000.21
2017-10-20T07:39:36.011Z,1000.2
2017-10-20T07:40:35.998Z,1000.16
2017-10-20T07:41:35.985Z,1000.18
2017-10-20T07:42:35.979Z,1000.22
2017-10-20T07:43:35.992Z,1000.21
2017-10-20T07:44:35.942Z,1000.2
2017-10-20T07:45:35.929Z,1000.17
2017-10-20T07:46:35.913Z,1000.17
2017-10-20T07:47:35.904Z,1000.11
2017-10-20T07:48:35.926Z,1000.16
2017-10-20T07:49:35.875Z,1000.17
2017-10-20T07:50:35.858Z,1000.12
2017-10-20T07:51:35.846Z,1000.15
2017-10-20T07:52:35.835Z,1000.2
2017-10-20T07:53:35.818Z,1000.18
2017-10-20T07:54:35.807Z,1000.18
2017-10-20T07:55:35.796Z,1000.19
2017-10-20T07:56:35.779Z,1000.19
2017-10-20T07:57:35.763Z,1000.24
2017-10-20T07:58:35.749Z,1000.17
2017-10-20T07:59:35.742Z,1000.15
2017-10-20T08:00:35.724Z,1000.1
2017-10-20T08:01:35.707Z,1000.13
2017-10-20T08:02:35.697Z,1000.1
2017-10-20T08:03:35.685Z,1000.09
2017-10-20T08:04:35.669Z,1000.05
2017-10-20T08:05:35.655Z,1000.04
2017-10-20T08:06:35.643Z,1000.01
2017-10-20T08:07:35.629Z,999.98
2017-10-20T08:08:35.615Z,999.99
2017-10-20T08:09:35.602Z,1000.02
2017-10-20T08:10:35.589Z,1000.01
2017-10-20T08:11:35.574Z,999.99
2017-10-20T08:12:35.570Z,999.98
2017-10-20T08:13:35.554Z,1000.01
2017-10-20T08:14:35.535Z,1000.01
2017-10-20T08:15:35.525Z,1000.01
2017-10-20T08:16:35.513Z,1000.01
2017-10-20T08:17:35.496Z,1000.06
2017-10-20T08:18:35.491Z,1000
2017-10-20T08:19:35.467Z,1000.05
2017-10-20T08:20:35.457Z,1000.04
2017-10-20T08:21:35.454Z,1000.04
2017-10-20T08:22:35.436Z,1000.09
2017-10-20T08:23:35.415Z,1000.08
2017-10-20T08:24:35.406Z,1000.11
2017-10-20T08:25:35.390Z,1000.06
2017-10-20T08:26:35.381Z,999.96
2017-10-20T08:27:35.364Z,1000.06
2017-10-20T08:28:35.360Z,1000.04
2017-10-20T08:29:35.338Z,999.99
2017-10-20T08:30:35.325Z,1000
2017-10-20T08:31:35.309Z,999.97
2017-10-20T08:32:35.297Z,999.97
2017-10-20T08:33:35.293Z,999.95
2017-10-20T08:34:35.272Z,999.97
2017-10-20T08:35:35.265Z,1000.01
2017-10-20T08:36:35.245Z,1000.04
2017-10-20T08:37:35.233Z,1000.03
2017-10-20T08:38:35.220Z,1000.07
2017-10-20T08:39:35.204Z,1000.08
2017-10-20T08:40:35.193Z,1000.1
2017-10-20T08:41:35.177Z,1000.11
2017-10-20T08:42:35.164Z,1000.14
2017-10-20T08:43:35.151Z,1000.13
2017-10-20T08:44:35.138Z,1000.13
2017-10-20T08:45:35.125Z,1000.11
2017-10-20T08:46:35.112Z,1000.1
2017-10-20T08:47:35.105Z,1000.09
2017-10-20T08:48:35.086Z,1000.08
2017-10-20T08:49:35.073Z,1000.11
2017-10-20T08:50:35.066Z,1000.12
2017-10-20T08:51:35.046Z,1000.15
2017-10-20T08:52:35.033Z,1000.13
2017-10-20T08:53:35.019Z,1000.16
2017-10-20T08:54:35.007Z,1000.14
2017-10-20T08:55:34.993Z,1000.16
2017-10-20T08:56:34.980Z,1000.13
2017-10-20T08:57:34.967Z,1000.16
2017-10-20T08:58:34.954Z,1000.14
2017-10-20T08:59:34.943Z,1000.11
2017-10-20T09:00:34.929Z,1000.09
2017-10-20T09:01:34.913Z,1000.1
2017-10-20T09:02:34.901Z,1000.14
2017-10-20T09:03:34.889Z,1000.15
2017-10-20T09:04:34.885Z,1000.15
2017-10-20T09:05:34.861Z,1000.15
2017-10-20T09:06:34.849Z,1000.17
2017-10-20T09:07:34.841Z,1000.19
2017-10-20T09:08:34.823Z,1000.25
2017-10-20T09:09:34.808Z,1000.25
2017-10-20T09:10:34.796Z,1000.24
2017-10-20T09:11:34.784Z,1000.31
2017-10-20T09:12:34.769Z,1000.37
2017-10-20T09:13:34.758Z,1000.36
2017-10-20T09:14:34.742Z,1000.35
2017-10-20T09:15:34.730Z,1000.34
2017-10-20T09:16:34.719Z,1000.36
2017-10-20T09:17:34.907Z,1000.38
2017-10-20T09:18:34.690Z,1000.4
2017-10-20T09:19:34.677Z,1000.43
2017-10-20T09:20:34.665Z,1000.41
2017-10-20T09:21:34.652Z,1000.39
2017-10-20T09:22:34.636Z,1000.37
2017-10-20T09:23:34.623Z,1000.41
2017-10-20T09:24:34.610Z,1000.44
2017-10-20T09:25:34.598Z,1000.42
2017-10-20T09:26:34.589Z,1000.44
2017-10-20T09:27:34.577Z,1000.39
2017-10-20T09:28:34.558Z,1000.47
2017-10-20T09:29:34.564Z,1000.36
2017-10-20T09:30:34.535Z,1000.38
2017-10-20T09:31:34.516Z,1000.38
2017-10-20T09:32:34.502Z,1000.36
2017-10-20T09:33:34.491Z,1000.37
2017-10-20T09:34:34.480Z,1000.32
2017-10-20T09:35:34.465Z,1000.29
2017-10-20T09:36:34.458Z,1000.35
2017-10-20T09:37:34.437Z,1000.38
2017-10-20T09:38:34.423Z,1000.39
2017-10-20T09:39:34.410Z,1000.37
2017-10-20T09:40:34.395Z,1000.33
2017-10-20T09:41:34.385Z,1000.33
2017-10-20T09:42:34.370Z,1000.34
2017-10-20T09:43:34.358Z,1000.31
2017-10-20T09:44:34.344Z,1000.22
2017-10-20T09:45:34.329Z,1000.3
2017-10-20T09:46:34.316Z,1000.39
2017-10-20T09:47:34.302Z,1000.42
2017-10-20T09:48:34.290Z,1000.48
2017-10-20T09:49:34.283Z,1000.58
2017-10-20T09:50:34.265Z,1000.71
2017-10-20T09:51:34.250Z,1000.71
2017-10-20T09:52:34.236Z,1000.72
2017-10-20T09:53:34.223Z,1000.73
2017-10-20T09:54:34.210Z,1000.82
2017-10-20T09:55:34.196Z,1000.9
2017-10-20T09:56:34.183Z,1000.87
2017-10-20T09:57:34.169Z,1000.91
2017-10-20T09:58:34.157Z,1000.86
2017-10-20T09:59:34.142Z,1000.86
2017-10-20T10:00:34.133Z,1000.85
2017-10-20T10:01:34.125Z,1000.83
2017-10-20T10:02:34.103Z,1000.81
2017-10-20T10:03:34.089Z,1000.84
2017-10-20T10:04:34.077Z,1000.92
2017-10-20T10:05:34.067Z,1000.95
2017-10-20T10:06:34.048Z,1000.94
2017-10-20T10:07:34.036Z,1000.94
2017-10-20T10:08:34.021Z,1001
2017-10-20T10:09:34.006Z,1001.03
2017-10-20T10:10:33.995Z,1001.08
2017-10-20T10:11:33.979Z,1001.06
2017-10-20T10:12:33.972Z,1001.05
2017-10-20T10:13:33.952Z,1000.99
2017-10-20T10:14:33.937Z,1000.96
2017-10-20T10:15:33.925Z,1000.96
2017-10-20T10:16:33.912Z,1000.95
2017-10-20T10:17:33.894Z,1000.95
2017-10-20T10:18:33.883Z,1001.01
2017-10-20T10:19:33.868Z,1001.03
2017-10-20T10:20:33.853Z,1001.01
2017-10-20T10:21:33.840Z,1001.02
2017-10-20T10:22:33.825Z,1001.03
2017-10-20T10:23:33.816Z,1001.04
2017-10-20T10:24:33.797Z,1001.03
2017-10-20T10:25:33.786Z,1000.96
2017-10-20T10:26:33.769Z,1000.96
2017-10-20T10:27:33.756Z,1000.92
2017-10-20T10:28:33.741Z,1000.95
2017-10-20T10:29:33.735Z,1000.97
2017-10-20T10:30:33.715Z,1000.97
2017-10-20T10:31:33.702Z,1000.93
2017-10-20T10:32:33.687Z,1000.93
2017-10-20T10:33:33.674Z,1000.96
2017-10-20T10:34:33.660Z,1000.98
2017-10-20T10:35:33.646Z,1001.02
2017-10-20T10:36:33.633Z,1001.01
2017-10-20T10:37:33.620Z,1001.03
2017-10-20T10:38:33.624Z,1000.98
2017-10-20T10:39:33.593Z,1001.02
2017-10-20T10:40:33.580Z,1001.1
2017-10-20T10:41:33.568Z,1001.07
2017-10-20T10:42:33.554Z,1001.11
2017-10-20T10:43:33.542Z,1001.15
2017-10-20T10:44:33.530Z,1001.15
2017-10-20T10:45:33.518Z,1001.09
2017-10-20T10:46:33.505Z,1001.16
2017-10-20T10:47:33.492Z,1001.18
2017-10-20T10:48:33.483Z,1001.16
2017-10-20T10:49:33.468Z,1001.18
2017-10-20T10:50:33.456Z,1001.17
2017-10-20T10:51:33.445Z,1001.17
2017-10-20T10:52:33.434Z,1001.12
2017-10-20T10:53:33.421Z,1001.05
2017-10-20T10:54:33.409Z,1001.1
2017-10-20T10:55:33.397Z,1001.1
2017-10-20T10:56:33.385Z,1001.08
2017-10-20T10:57:33.373Z,1001.09
2017-10-20T10:58:33.362Z,1001.12
2017-10-20T10:59:33.348Z,1001.05
2017-10-20T11:00:33.342Z,1001.18
2017-10-20T11:01:33.329Z,1001.1
2017-10-20T11:02:33.314Z,1001.2
2017-10-20T11:03:33.331Z,1001.04
2017-10-20T11:04:33.302Z,1001.12
2017-10-20T11:05:33.282Z,1001
2017-10-20T11:06:33.289Z,1000.94
2017-10-20T11:07:33.263Z,1001.06
2017-10-20T11:08:33.246Z,1001.03
2017-10-20T11:09:33.265Z,1001.03
2017-10-20T11:10:33.231Z,1001.01
2017-10-20T11:11:33.214Z,1001.01
2017-10-20T11:12:33.203Z,1000.99
2017-10-20T11:13:33.197Z,1001
2017-10-20T11:14:33.183Z,1001.16
2017-10-20T11:15:33.168Z,1001
2017-10-20T11:16:33.154Z,1001.02
2017-10-20T11:17:33.345Z,1001.06
2017-10-20T11:18:33.137Z,1001.02
2017-10-20T11:19:33.121Z,1001
2017-10-20T11:20:33.112Z,1001.07
2017-10-20T11:21:33.098Z,1001.11
2017-10-20T11:22:33.089Z,1001.08
2017-10-20T11:23:33.074Z,1001.08
2017-10-20T11:24:33.065Z,1001.06
2017-10-20T11:25:33.053Z,1001.08
2017-10-20T11:26:33.040Z,1001.09
2017-10-20T11:27:33.029Z,1001.18
2017-10-20T11:28:33.018Z,1001.19
2017-10-20T11:29:33.007Z,1001.17
2017-10-20T11:30:33.001Z,1001.19
2017-10-20T11:31:32.985Z,1001.15
2017-10-20T11:32:32.975Z,1001.18
2017-10-20T11:33:32.962Z,1001.27
2017-10-20T11:34:32.954Z,1001.37
2017-10-20T11:35:32.944Z,1001.26
2017-10-20T11:36:32.932Z,1001.37
2017-10-20T11:37:32.922Z,1001.38
2017-10-20T11:38:32.912Z,1001.33
2017-10-20T11:39:32.903Z,1001.32
2017-10-20T11:40:32.892Z,1001.38
2017-10-20T11:41:32.885Z,1001.42
2017-10-20T11:42:32.877Z,1001.39
2017-10-20T11:43:32.866Z,1001.31
2017-10-20T11:44:32.858Z,1001.39
2017-10-20T11:45:32.853Z,1001.37
2017-10-20T11:46:32.842Z,1001.34
2017-10-20T11:47:32.830Z,1001.35
2017-10-20T11:48:32.822Z,1001.32
2017-10-20T11:49:32.821Z,1001.35
2017-10-20T11:50:32.803Z,1001.39
2017-10-20T11:51:32.796Z,1001.37
2017-10-20T11:52:32.828Z,1001.38
2017-10-20T11:53:32.777Z,1001.4
2017-10-20T11:54:32.767Z,1001.41
2017-10-20T11:55:32.758Z,1001.48
2017-10-20T11:56:32.750Z,1001.4
2017-10-20T11:57:32.739Z,1001.3
2017-10-20T11:58:32.730Z,1001.35
2017-10-20T11:59:32.720Z,1001.38
2017-10-20T12:00:32.713Z,1001.45
2017-10-20T12:01:32.705Z,1001.49
2017-10-20T12:02:32.694Z,1001.38
2017-10-20T12:03:32.685Z,1001.42
2017-10-20T12:04:32.688Z,1001.44
2017-10-20T12:05:32.668Z,1001.66
2017-10-20T12:06:32.663Z,1001.42
2017-10-20T12:07:32.650Z,1001.51
2017-10-20T12:08:32.641Z,1001.52
2017-10-20T12:09:32.631Z,1001.67